New Richland, MN

11:17 AM CST en Febrero 07, 2016 (GMT -0600)
OTISCO TOWNSHIP | | Change Station
CLOSE
Current Station
Estación meteorológica personal
Location: WASECA, MN
Altura: 1175 ft
Estaciones meteorológicas cercanas
Aviso en curso: Blizzard Warning

Alt 1175 ft 44.01 °N, 93.48 °W | Updated 30 seconds ago

Clear
Despejado
38.1 ° F
Sensación térmica 31 ° F
N
11.4
Viento Variable Viento desde NO
Gusts 13.0 mph

Hoy
Alta -- | Baja -- ° F
--% Posibilidad de precipitaciones
Ayer
Alta -- | Baja -- ° F
Precip. -- pul
Presión 29.73 pul
Visibilidad 10.0 Millas
Nubes Despejado
Vientos helados 31 ° F
Punto de rocío 26 ° F
Humedad 60%
Precipitaciones 0.00 pul
Espesor de la nieve No disponible.
7:24 AM 5:32 PM
Creciente menguante, 1% visible
METAR KACQ 071655Z AUTO 26015KT 10SM CLR 02/M02 A2973 RMK AO2
Presión 29.73 pul
Visibilidad 10.0 Millas
Nubes Despejado
Vientos helados 31 ° F
Punto de rocío 26 ° F
Humedad 60%
Precipitaciones 0.00 pul
Espesor de la nieve No disponible.
7:24 AM 5:32 PM
Creciente menguante, 1% visible
METAR KACQ 071655Z AUTO 26015KT 10SM CLR 02/M02 A2973 RMK AO2

10-Day Weather Forecast

Almanac

Astronomía

Feb. 07, 2016 Salida Puesta
Hora real
Crepúsculo civil
Crepúsculo náutico
Crepúsculo astronómico
Luna
Horas de luz
Horas de luz
Tomorrow will be .
, % of the Moon is Illuminated

Extremos de hoy

Máximos del estado Bajos del estado

Community

WunderPhotos

Upload Photos

1,891,236 ¡fotos cargadas!

WunderBlog® & News

Nearby

Calidad del aire

  Calidad del aire Índice AQ Contaminante
Not available.

Grosos de nieve

Estación Profundido Altura

Actividad de terremotos

Ciudad Distance Mag. Tiempo y dato
Magnitud mínima muestra es 2,5.

Temperaturas de aguas costeras

Lugar Temperatura

Stations

Estaciones meteorológicas cercanas

Ubicación de la estación Temp. Vientos helados Punto de rocío Humedad Viento Precip. Alt Actualizado Tipo
                   

Watches & Warnings

Blizzard Warning
Issued: 10:11 AM CST Feb. 7, 2016 – National Weather Service

... Blizzard Warning remains in effect from 7 PM this evening to
noon CST Monday...

* expect blizzard conditions to develop after 7 PM this evening
and then diminish around noon Monday.

* Winds gusting as high as 55 mph will cause whiteout conditions
in blowing snow. Significant drifting of the snow is likely.

* Snow accumulations of up to 1 inch are expected.

* Travel will be very difficult or impossible and Road closures
are possible.

Precautionary/preparedness actions...

A Blizzard Warning means severe winter weather conditions are
expected. If you must travel... have a winter survival kit with
you. If you get stranded... stay with your vehicle. The latest
Road conditions for the state you are calling from can be
obtained by calling 5 1 1.